sensor_id;sensor_type;location;lat;lon;timestamp;P1;durP1;ratioP1;P2;durP2;ratioP2
56141;SDS011;42018;48.588;10.836;2023-09-08T00:00:40;4.90;;;3.55;;
56141;SDS011;42018;48.588;10.836;2023-09-08T00:03:26;5.50;;;3.53;;
56141;SDS011;42018;48.588;10.836;2023-09-08T00:06:11;4.65;;;3.28;;
56141;SDS011;42018;48.588;10.836;2023-09-08T00:08:56;4.30;;;2.83;;
56141;SDS011;42018;48.588;10.836;2023-09-08T00:11:46;5.00;;;3.40;;
56141;SDS011;42018;48.588;10.836;2023-09-08T00:14:44;5.47;;;3.22;;
56141;SDS011;42018;48.588;10.836;2023-09-08T00:17:35;4.95;;;3.50;;
56141;SDS011;42018;48.588;10.836;2023-09-08T00:20:21;5.75;;;3.42;;
56141;SDS011;42018;48.588;10.836;2023-09-08T00:23:07;4.40;;;3.10;;
56141;SDS011;42018;48.588;10.836;2023-09-08T00:25:55;4.63;;;3.10;;
56141;SDS011;42018;48.588;10.836;2023-09-08T00:28:40;4.32;;;2.97;;
56141;SDS011;42018;48.588;10.836;2023-09-08T00:31:29;4.90;;;3.30;;
56141;SDS011;42018;48.588;10.836;2023-09-08T00:34:29;4.50;;;3.50;;
56141;SDS011;42018;48.588;10.836;2023-09-08T00:37:32;4.50;;;3.42;;
56141;SDS011;42018;48.588;10.836;2023-09-08T00:51:31;4.93;;;3.30;;
56141;SDS011;42018;48.588;10.836;2023-09-08T00:54:18;5.13;;;3.30;;
56141;SDS011;42018;48.588;10.836;2023-09-08T00:57:14;4.53;;;3.00;;
56141;SDS011;42018;48.588;10.836;2023-09-08T01:00:01;4.57;;;3.10;;
56141;SDS011;42018;48.588;10.836;2023-09-08T01:02:55;4.75;;;3.22;;
56141;SDS011;42018;48.588;10.836;2023-09-08T01:09:17;4.50;;;2.83;;
56141;SDS011;42018;48.588;10.836;2023-09-08T01:15:25;5.13;;;3.00;;
56141;SDS011;42018;48.588;10.836;2023-09-08T01:25:59;5.38;;;3.20;;
56141;SDS011;42018;48.588;10.836;2023-09-08T01:32:47;5.35;;;3.03;;
56141;SDS011;42018;48.588;10.836;2023-09-08T01:35:34;4.80;;;3.45;;
56141;SDS011;42018;48.588;10.836;2023-09-08T01:38:32;5.22;;;3.10;;
56141;SDS011;42018;48.588;10.836;2023-09-08T01:41:18;4.75;;;3.15;;
56141;SDS011;42018;48.588;10.836;2023-09-08T01:47:33;4.60;;;3.30;;
56141;SDS011;42018;48.588;10.836;2023-09-08T02:31:37;4.35;;;2.80;;
56141;SDS011;42018;48.588;10.836;2023-09-08T02:38:20;4.38;;;2.85;;
56141;SDS011;42018;48.588;10.836;2023-09-08T02:41:13;4.50;;;2.75;;
56141;SDS011;42018;48.588;10.836;2023-09-08T02:47:35;4.28;;;2.92;;
56141;SDS011;42018;48.588;10.836;2023-09-08T03:01:42;4.07;;;2.80;;
56141;SDS011;42018;48.588;10.836;2023-09-08T03:19:49;4.78;;;3.00;;
56141;SDS011;42018;48.588;10.836;2023-09-08T03:26:34;5.10;;;3.20;;
56141;SDS011;42018;48.588;10.836;2023-09-08T03:29:20;4.22;;;3.03;;
56141;SDS011;42018;48.588;10.836;2023-09-08T03:32:05;5.95;;;3.10;;
56141;SDS011;42018;48.588;10.836;2023-09-08T03:34:50;5.30;;;2.85;;
56141;SDS011;42018;48.588;10.836;2023-09-08T03:37:36;5.63;;;3.22;;
56141;SDS011;42018;48.588;10.836;2023-09-08T03:40:21;4.65;;;2.80;;
56141;SDS011;42018;48.588;10.836;2023-09-08T03:43:07;4.93;;;3.35;;
56141;SDS011;42018;48.588;10.836;2023-09-08T03:45:52;4.40;;;2.90;;
56141;SDS011;42018;48.588;10.836;2023-09-08T03:48:37;6.10;;;3.25;;
56141;SDS011;42018;48.588;10.836;2023-09-08T03:51:23;4.32;;;3.05;;
56141;SDS011;42018;48.588;10.836;2023-09-08T03:54:08;3.97;;;2.60;;
56141;SDS011;42018;48.588;10.836;2023-09-08T03:56:53;4.88;;;3.15;;
56141;SDS011;42018;48.588;10.836;2023-09-08T03:59:39;4.97;;;3.00;;
56141;SDS011;42018;48.588;10.836;2023-09-08T04:02:24;4.93;;;3.10;;
56141;SDS011;42018;48.588;10.836;2023-09-08T04:05:09;4.50;;;3.00;;
56141;SDS011;42018;48.588;10.836;2023-09-08T04:07:55;4.22;;;2.70;;
56141;SDS011;42018;48.588;10.836;2023-09-08T04:10:41;4.20;;;2.60;;
56141;SDS011;42018;48.588;10.836;2023-09-08T04:13:26;3.92;;;2.40;;
56141;SDS011;42018;48.588;10.836;2023-09-08T04:16:11;4.10;;;2.40;;
56141;SDS011;42018;48.588;10.836;2023-09-08T04:18:57;4.60;;;2.20;;
56141;SDS011;42018;48.588;10.836;2023-09-08T04:21:42;3.30;;;1.90;;
56141;SDS011;42018;48.588;10.836;2023-09-08T04:24:27;2.35;;;1.40;;
56141;SDS011;42018;48.588;10.836;2023-09-08T04:27:13;2.63;;;1.50;;
56141;SDS011;42018;48.588;10.836;2023-09-08T04:29:58;2.63;;;1.45;;
56141;SDS011;42018;48.588;10.836;2023-09-08T04:32:44;2.83;;;1.48;;
56141;SDS011;42018;48.588;10.836;2023-09-08T04:35:29;2.90;;;1.58;;
56141;SDS011;42018;48.588;10.836;2023-09-08T04:38:15;2.47;;;1.45;;
56141;SDS011;42018;48.588;10.836;2023-09-08T04:41:00;3.50;;;1.83;;
56141;SDS011;42018;48.588;10.836;2023-09-08T04:43:45;3.30;;;2.00;;
56141;SDS011;42018;48.588;10.836;2023-09-08T04:46:31;3.85;;;1.90;;
56141;SDS011;42018;48.588;10.836;2023-09-08T04:49:16;5.10;;;2.13;;
56141;SDS011;42018;48.588;10.836;2023-09-08T04:52:01;3.13;;;1.90;;
56141;SDS011;42018;48.588;10.836;2023-09-08T04:54:47;3.40;;;1.98;;
56141;SDS011;42018;48.588;10.836;2023-09-08T04:57:32;3.70;;;1.92;;
56141;SDS011;42018;48.588;10.836;2023-09-08T05:00:18;3.20;;;1.80;;
56141;SDS011;42018;48.588;10.836;2023-09-08T05:03:03;4.32;;;1.90;;
56141;SDS011;42018;48.588;10.836;2023-09-08T05:05:48;3.20;;;1.70;;
56141;SDS011;42018;48.588;10.836;2023-09-08T05:08:34;3.63;;;2.00;;
56141;SDS011;42018;48.588;10.836;2023-09-08T05:11:19;3.25;;;1.90;;
56141;SDS011;42018;48.588;10.836;2023-09-08T05:14:04;3.30;;;1.90;;
56141;SDS011;42018;48.588;10.836;2023-09-08T05:16:50;3.00;;;1.80;;
56141;SDS011;42018;48.588;10.836;2023-09-08T05:19:40;4.28;;;2.00;;
56141;SDS011;42018;48.588;10.836;2023-09-08T05:22:25;3.60;;;2.00;;
56141;SDS011;42018;48.588;10.836;2023-09-08T05:25:11;3.58;;;1.98;;
56141;SDS011;42018;48.588;10.836;2023-09-08T05:27:56;4.97;;;2.15;;
56141;SDS011;42018;48.588;10.836;2023-09-08T05:30:42;3.90;;;2.10;;
56141;SDS011;42018;48.588;10.836;2023-09-08T05:33:27;3.78;;;2.35;;
56141;SDS011;42018;48.588;10.836;2023-09-08T05:36:12;4.05;;;2.22;;
56141;SDS011;42018;48.588;10.836;2023-09-08T05:38:58;3.83;;;2.15;;
56141;SDS011;42018;48.588;10.836;2023-09-08T05:41:43;3.85;;;2.47;;
56141;SDS011;42018;48.588;10.836;2023-09-08T05:44:28;4.35;;;2.05;;
56141;SDS011;42018;48.588;10.836;2023-09-08T05:47:14;3.50;;;2.30;;
56141;SDS011;42018;48.588;10.836;2023-09-08T05:49:59;5.18;;;2.60;;
56141;SDS011;42018;48.588;10.836;2023-09-08T05:52:44;4.32;;;2.92;;
56141;SDS011;42018;48.588;10.836;2023-09-08T05:55:30;4.75;;;3.10;;
56141;SDS011;42018;48.588;10.836;2023-09-08T05:58:15;4.65;;;3.00;;
56141;SDS011;42018;48.588;10.836;2023-09-08T06:01:01;4.05;;;3.05;;
56141;SDS011;42018;48.588;10.836;2023-09-08T06:03:47;4.05;;;2.80;;
56141;SDS011;42018;48.588;10.836;2023-09-08T06:06:33;4.63;;;3.55;;
56141;SDS011;42018;48.588;10.836;2023-09-08T06:09:18;4.35;;;2.88;;
56141;SDS011;42018;48.588;10.836;2023-09-08T06:12:04;4.32;;;2.95;;
56141;SDS011;42018;48.588;10.836;2023-09-08T06:14:49;5.15;;;3.20;;
56141;SDS011;42018;48.588;10.836;2023-09-08T06:17:35;4.28;;;3.00;;
56141;SDS011;42018;48.588;10.836;2023-09-08T06:20:20;5.55;;;2.97;;
56141;SDS011;42018;48.588;10.836;2023-09-08T06:23:06;4.65;;;3.40;;
56141;SDS011;42018;48.588;10.836;2023-09-08T06:25:55;8.85;;;3.50;;
56141;SDS011;42018;48.588;10.836;2023-09-08T06:35:40;5.28;;;3.92;;
56141;SDS011;42018;48.588;10.836;2023-09-08T06:42:13;4.75;;;3.80;;
56141;SDS011;42018;48.588;10.836;2023-09-08T06:45:12;5.70;;;4.28;;
56141;SDS011;42018;48.588;10.836;2023-09-08T06:47:58;5.47;;;4.10;;
56141;SDS011;42018;48.588;10.836;2023-09-08T06:50:45;5.45;;;4.32;;
56141;SDS011;42018;48.588;10.836;2023-09-08T06:53:30;5.57;;;4.32;;
56141;SDS011;42018;48.588;10.836;2023-09-08T06:56:29;5.90;;;4.25;;
56141;SDS011;42018;48.588;10.836;2023-09-08T07:03:14;5.22;;;4.38;;
56141;SDS011;42018;48.588;10.836;2023-09-08T07:09:42;6.00;;;4.60;;
56141;SDS011;42018;48.588;10.836;2023-09-08T07:16:11;6.13;;;4.30;;
56141;SDS011;42018;48.588;10.836;2023-09-08T07:26:19;5.20;;;4.28;;
56141;SDS011;42018;48.588;10.836;2023-09-08T07:29:05;5.32;;;4.22;;
56141;SDS011;42018;48.588;10.836;2023-09-08T07:31:50;6.00;;;4.10;;
56141;SDS011;42018;48.588;10.836;2023-09-08T07:34:36;5.15;;;4.45;;
56141;SDS011;42018;48.588;10.836;2023-09-08T07:37:22;5.63;;;4.05;;
56141;SDS011;42018;48.588;10.836;2023-09-08T07:43:51;5.72;;;3.60;;
56141;SDS011;42018;48.588;10.836;2023-09-08T07:46:50;6.82;;;4.15;;
56141;SDS011;42018;48.588;10.836;2023-09-08T07:49:36;6.90;;;5.77;;
56141;SDS011;42018;48.588;10.836;2023-09-08T07:52:22;6.95;;;6.25;;
56141;SDS011;42018;48.588;10.836;2023-09-08T07:55:07;6.50;;;5.80;;
56141;SDS011;42018;48.588;10.836;2023-09-08T07:57:53;7.07;;;6.18;;
56141;SDS011;42018;48.588;10.836;2023-09-08T08:00:38;8.02;;;6.18;;
56141;SDS011;42018;48.588;10.836;2023-09-08T08:03:24;7.93;;;7.13;;
56141;SDS011;42018;48.588;10.836;2023-09-08T08:06:09;8.55;;;7.38;;
56141;SDS011;42018;48.588;10.836;2023-09-08T08:08:54;9.50;;;8.50;;
56141;SDS011;42018;48.588;10.836;2023-09-08T08:11:41;9.60;;;8.68;;
56141;SDS011;42018;48.588;10.836;2023-09-08T08:14:26;10.70;;;9.45;;
56141;SDS011;42018;48.588;10.836;2023-09-08T08:17:12;7.55;;;6.63;;
56141;SDS011;42018;48.588;10.836;2023-09-08T08:19:57;8.07;;;7.28;;
56141;SDS011;42018;48.588;10.836;2023-09-08T08:23:06;10.13;;;9.13;;
56141;SDS011;42018;48.588;10.836;2023-09-08T08:25:52;9.90;;;8.90;;
56141;SDS011;42018;48.588;10.836;2023-09-08T08:28:37;9.20;;;8.30;;
56141;SDS011;42018;48.588;10.836;2023-09-08T08:31:23;10.38;;;9.18;;
56141;SDS011;42018;48.588;10.836;2023-09-08T08:34:09;9.35;;;8.35;;
56141;SDS011;42018;48.588;10.836;2023-09-08T08:36:54;8.75;;;7.30;;
56141;SDS011;42018;48.588;10.836;2023-09-08T08:39:40;6.22;;;5.53;;
56141;SDS011;42018;48.588;10.836;2023-09-08T08:42:30;6.90;;;5.93;;
56141;SDS011;42018;48.588;10.836;2023-09-08T08:45:17;7.35;;;5.50;;
56141;SDS011;42018;48.588;10.836;2023-09-08T08:48:06;6.35;;;5.35;;
56141;SDS011;42018;48.588;10.836;2023-09-08T08:50:53;6.13;;;4.38;;
56141;SDS011;42018;48.588;10.836;2023-09-08T08:53:39;7.07;;;4.43;;
56141;SDS011;42018;48.588;10.836;2023-09-08T08:56:25;6.78;;;3.67;;
56141;SDS011;42018;48.588;10.836;2023-09-08T08:59:10;5.13;;;3.67;;
56141;SDS011;42018;48.588;10.836;2023-09-08T09:01:57;5.63;;;3.78;;
56141;SDS011;42018;48.588;10.836;2023-09-08T09:04:43;5.97;;;3.70;;
56141;SDS011;42018;48.588;10.836;2023-09-08T09:07:30;4.90;;;3.50;;
56141;SDS011;42018;48.588;10.836;2023-09-08T09:10:16;5.03;;;3.47;;
56141;SDS011;42018;48.588;10.836;2023-09-08T09:13:02;4.68;;;3.47;;
56141;SDS011;42018;48.588;10.836;2023-09-08T09:15:48;5.20;;;3.78;;
56141;SDS011;42018;48.588;10.836;2023-09-08T09:18:34;7.43;;;3.60;;
56141;SDS011;42018;48.588;10.836;2023-09-08T09:21:46;5.78;;;3.75;;
56141;SDS011;42018;48.588;10.836;2023-09-08T09:27:19;4.53;;;3.30;;
56141;SDS011;42018;48.588;10.836;2023-09-08T09:30:07;5.00;;;3.55;;
56141;SDS011;42018;48.588;10.836;2023-09-08T09:33:02;4.82;;;3.50;;
56141;SDS011;42018;48.588;10.836;2023-09-08T09:38:36;4.88;;;3.33;;
56141;SDS011;42018;48.588;10.836;2023-09-08T09:41:22;4.60;;;3.25;;
56141;SDS011;42018;48.588;10.836;2023-09-08T09:44:07;5.95;;;3.25;;
56141;SDS011;42018;48.588;10.836;2023-09-08T09:46:54;5.72;;;3.70;;
56141;SDS011;42018;48.588;10.836;2023-09-08T09:49:43;6.22;;;3.60;;
56141;SDS011;42018;48.588;10.836;2023-09-08T09:52:29;6.65;;;3.80;;
56141;SDS011;42018;48.588;10.836;2023-09-08T09:55:16;4.80;;;3.13;;
56141;SDS011;42018;48.588;10.836;2023-09-08T09:58:02;4.55;;;3.08;;
56141;SDS011;42018;48.588;10.836;2023-09-08T10:00:49;5.55;;;3.45;;
56141;SDS011;42018;48.588;10.836;2023-09-08T10:03:35;4.50;;;2.95;;
56141;SDS011;42018;48.588;10.836;2023-09-08T10:06:20;4.82;;;2.97;;
56141;SDS011;42018;48.588;10.836;2023-09-08T10:09:08;6.45;;;3.38;;
56141;SDS011;42018;48.588;10.836;2023-09-08T10:11:59;5.32;;;3.17;;
56141;SDS011;42018;48.588;10.836;2023-09-08T10:14:49;5.18;;;2.88;;
56141;SDS011;42018;48.588;10.836;2023-09-08T10:17:38;4.65;;;3.10;;
56141;SDS011;42018;48.588;10.836;2023-09-08T10:20:26;7.40;;;3.20;;
56141;SDS011;42018;48.588;10.836;2023-09-08T10:23:16;5.13;;;3.03;;
56141;SDS011;42018;48.588;10.836;2023-09-08T10:26:10;4.80;;;3.00;;
56141;SDS011;42018;48.588;10.836;2023-09-08T10:28:56;6.10;;;2.97;;
56141;SDS011;42018;48.588;10.836;2023-09-08T10:31:42;7.40;;;2.85;;
56141;SDS011;42018;48.588;10.836;2023-09-08T10:34:29;5.05;;;2.90;;
56141;SDS011;42018;48.588;10.836;2023-09-08T10:37:25;5.53;;;3.30;;
56141;SDS011;42018;48.588;10.836;2023-09-08T10:40:24;5.15;;;3.20;;
56141;SDS011;42018;48.588;10.836;2023-09-08T10:43:12;5.22;;;3.00;;
56141;SDS011;42018;48.588;10.836;2023-09-08T10:45:58;4.50;;;2.90;;
56141;SDS011;42018;48.588;10.836;2023-09-08T10:48:43;4.53;;;2.90;;
56141;SDS011;42018;48.588;10.836;2023-09-08T10:51:29;4.68;;;3.33;;
56141;SDS011;42018;48.588;10.836;2023-09-08T10:54:39;7.18;;;3.20;;
56141;SDS011;42018;48.588;10.836;2023-09-08T10:57:26;4.38;;;2.92;;
56141;SDS011;42018;48.588;10.836;2023-09-08T11:00:12;5.63;;;2.95;;
56141;SDS011;42018;48.588;10.836;2023-09-08T11:03:03;4.28;;;3.00;;
56141;SDS011;42018;48.588;10.836;2023-09-08T11:05:49;4.72;;;2.95;;
56141;SDS011;42018;48.588;10.836;2023-09-08T11:08:36;5.25;;;2.75;;
56141;SDS011;42018;48.588;10.836;2023-09-08T11:11:24;5.07;;;2.90;;
56141;SDS011;42018;48.588;10.836;2023-09-08T11:14:10;4.75;;;3.05;;
56141;SDS011;42018;48.588;10.836;2023-09-08T11:16:57;5.97;;;3.10;;
56141;SDS011;42018;48.588;10.836;2023-09-08T11:19:44;4.35;;;2.70;;
56141;SDS011;42018;48.588;10.836;2023-09-08T11:22:33;4.20;;;2.55;;
56141;SDS011;42018;48.588;10.836;2023-09-08T11:25:20;4.63;;;3.13;;
56141;SDS011;42018;48.588;10.836;2023-09-08T11:28:05;5.60;;;3.05;;
56141;SDS011;42018;48.588;10.836;2023-09-08T11:30:51;4.03;;;2.72;;
56141;SDS011;42018;48.588;10.836;2023-09-08T11:33:36;4.88;;;2.80;;
56141;SDS011;42018;48.588;10.836;2023-09-08T11:36:25;4.63;;;3.17;;
56141;SDS011;42018;48.588;10.836;2023-09-08T11:39:10;5.65;;;2.90;;
56141;SDS011;42018;48.588;10.836;2023-09-08T11:41:55;4.50;;;2.90;;
56141;SDS011;42018;48.588;10.836;2023-09-08T11:44:41;6.25;;;3.20;;
56141;SDS011;42018;48.588;10.836;2023-09-08T11:47:27;5.50;;;3.20;;
56141;SDS011;42018;48.588;10.836;2023-09-08T11:50:13;4.75;;;2.97;;
56141;SDS011;42018;48.588;10.836;2023-09-08T11:53:00;4.45;;;2.90;;
56141;SDS011;42018;48.588;10.836;2023-09-08T11:55:47;5.50;;;2.80;;
56141;SDS011;42018;48.588;10.836;2023-09-08T11:58:34;6.45;;;3.05;;
56141;SDS011;42018;48.588;10.836;2023-09-08T12:01:19;6.07;;;2.80;;
56141;SDS011;42018;48.588;10.836;2023-09-08T12:04:05;5.03;;;3.03;;
56141;SDS011;42018;48.588;10.836;2023-09-08T12:06:54;4.40;;;2.70;;
56141;SDS011;42018;48.588;10.836;2023-09-08T12:09:42;4.32;;;2.85;;
56141;SDS011;42018;48.588;10.836;2023-09-08T12:12:28;5.07;;;2.90;;
56141;SDS011;42018;48.588;10.836;2023-09-08T12:18:17;4.45;;;2.90;;
56141;SDS011;42018;48.588;10.836;2023-09-08T12:21:03;4.90;;;2.80;;
56141;SDS011;42018;48.588;10.836;2023-09-08T12:23:52;5.00;;;2.80;;
56141;SDS011;42018;48.588;10.836;2023-09-08T12:26:38;4.88;;;2.90;;
56141;SDS011;42018;48.588;10.836;2023-09-08T12:29:24;4.90;;;2.88;;
56141;SDS011;42018;48.588;10.836;2023-09-08T12:32:13;4.43;;;2.88;;
56141;SDS011;42018;48.588;10.836;2023-09-08T12:34:58;5.03;;;2.40;;
56141;SDS011;42018;48.588;10.836;2023-09-08T12:37:46;5.70;;;3.03;;
56141;SDS011;42018;48.588;10.836;2023-09-08T12:40:35;4.95;;;2.58;;
56141;SDS011;42018;48.588;10.836;2023-09-08T12:43:22;6.20;;;2.75;;
56141;SDS011;42018;48.588;10.836;2023-09-08T12:46:07;5.22;;;2.60;;
56141;SDS011;42018;48.588;10.836;2023-09-08T12:48:52;4.20;;;2.85;;
56141;SDS011;42018;48.588;10.836;2023-09-08T12:51:38;4.18;;;2.75;;
56141;SDS011;42018;48.588;10.836;2023-09-08T12:54:24;4.13;;;2.33;;
56141;SDS011;42018;48.588;10.836;2023-09-08T12:57:09;6.50;;;2.58;;
56141;SDS011;42018;48.588;10.836;2023-09-08T12:59:55;4.88;;;2.60;;
56141;SDS011;42018;48.588;10.836;2023-09-08T13:02:40;3.80;;;2.35;;
56141;SDS011;42018;48.588;10.836;2023-09-08T13:05:26;4.63;;;2.60;;
56141;SDS011;42018;48.588;10.836;2023-09-08T13:08:12;4.93;;;2.55;;
56141;SDS011;42018;48.588;10.836;2023-09-08T13:11:00;5.05;;;2.58;;
56141;SDS011;42018;48.588;10.836;2023-09-08T13:13:45;5.72;;;2.80;;
56141;SDS011;42018;48.588;10.836;2023-09-08T13:16:30;5.72;;;2.60;;
56141;SDS011;42018;48.588;10.836;2023-09-08T13:19:16;3.90;;;2.50;;
56141;SDS011;42018;48.588;10.836;2023-09-08T13:22:01;4.70;;;2.80;;
56141;SDS011;42018;48.588;10.836;2023-09-08T13:24:46;5.20;;;2.60;;
56141;SDS011;42018;48.588;10.836;2023-09-08T13:27:32;5.72;;;2.65;;
56141;SDS011;42018;48.588;10.836;2023-09-08T13:30:17;5.32;;;2.83;;
56141;SDS011;42018;48.588;10.836;2023-09-08T13:33:17;4.35;;;2.63;;
56141;SDS011;42018;48.588;10.836;2023-09-08T13:39:11;4.07;;;2.40;;
56141;SDS011;42018;48.588;10.836;2023-09-08T13:41:59;5.53;;;2.95;;
56141;SDS011;42018;48.588;10.836;2023-09-08T13:44:46;4.05;;;2.53;;
56141;SDS011;42018;48.588;10.836;2023-09-08T13:47:47;4.38;;;2.70;;
56141;SDS011;42018;48.588;10.836;2023-09-08T13:50:32;5.63;;;2.72;;
56141;SDS011;42018;48.588;10.836;2023-09-08T13:53:18;4.45;;;2.60;;
56141;SDS011;42018;48.588;10.836;2023-09-08T13:56:06;4.32;;;2.50;;
56141;SDS011;42018;48.588;10.836;2023-09-08T13:58:51;7.50;;;2.97;;
56141;SDS011;42018;48.588;10.836;2023-09-08T14:01:37;4.22;;;2.58;;
56141;SDS011;42018;48.588;10.836;2023-09-08T14:04:23;4.70;;;2.90;;
56141;SDS011;42018;48.588;10.836;2023-09-08T14:07:09;4.28;;;2.85;;
56141;SDS011;42018;48.588;10.836;2023-09-08T14:09:54;5.90;;;2.80;;
56141;SDS011;42018;48.588;10.836;2023-09-08T14:12:39;4.22;;;2.63;;
56141;SDS011;42018;48.588;10.836;2023-09-08T14:15:25;4.78;;;2.88;;
56141;SDS011;42018;48.588;10.836;2023-09-08T14:18:10;5.28;;;2.80;;
56141;SDS011;42018;48.588;10.836;2023-09-08T14:20:56;4.72;;;3.15;;
56141;SDS011;42018;48.588;10.836;2023-09-08T14:23:41;4.22;;;2.58;;
56141;SDS011;42018;48.588;10.836;2023-09-08T14:26:27;5.07;;;2.78;;
56141;SDS011;42018;48.588;10.836;2023-09-08T14:29:12;4.03;;;2.83;;
56141;SDS011;42018;48.588;10.836;2023-09-08T14:31:58;5.05;;;2.88;;
56141;SDS011;42018;48.588;10.836;2023-09-08T14:34:43;4.60;;;3.08;;
56141;SDS011;42018;48.588;10.836;2023-09-08T14:37:28;4.10;;;2.83;;
56141;SDS011;42018;48.588;10.836;2023-09-08T14:40:14;4.75;;;2.72;;
56141;SDS011;42018;48.588;10.836;2023-09-08T14:43:00;4.78;;;2.83;;
56141;SDS011;42018;48.588;10.836;2023-09-08T14:45:45;4.82;;;3.10;;
56141;SDS011;42018;48.588;10.836;2023-09-08T14:48:30;5.28;;;3.08;;
56141;SDS011;42018;48.588;10.836;2023-09-08T14:51:16;6.85;;;3.30;;
56141;SDS011;42018;48.588;10.836;2023-09-08T14:54:01;5.10;;;2.90;;
56141;SDS011;42018;48.588;10.836;2023-09-08T14:56:47;6.65;;;3.10;;
56141;SDS011;42018;48.588;10.836;2023-09-08T14:59:32;5.35;;;3.08;;
56141;SDS011;42018;48.588;10.836;2023-09-08T15:02:18;3.92;;;2.90;;
56141;SDS011;42018;48.588;10.836;2023-09-08T15:05:03;5.82;;;3.33;;
56141;SDS011;42018;48.588;10.836;2023-09-08T15:07:48;5.50;;;3.20;;
56141;SDS011;42018;48.588;10.836;2023-09-08T15:10:34;6.25;;;3.00;;
56141;SDS011;42018;48.588;10.836;2023-09-08T15:13:20;5.22;;;3.20;;
56141;SDS011;42018;48.588;10.836;2023-09-08T15:16:05;4.78;;;3.25;;
56141;SDS011;42018;48.588;10.836;2023-09-08T15:18:50;5.72;;;3.30;;
56141;SDS011;42018;48.588;10.836;2023-09-08T15:21:36;4.45;;;3.05;;
56141;SDS011;42018;48.588;10.836;2023-09-08T15:24:21;4.10;;;2.95;;
56141;SDS011;42018;48.588;10.836;2023-09-08T15:27:06;5.28;;;3.03;;
56141;SDS011;42018;48.588;10.836;2023-09-08T15:29:55;5.65;;;3.30;;
56141;SDS011;42018;48.588;10.836;2023-09-08T15:32:40;4.72;;;3.30;;
56141;SDS011;42018;48.588;10.836;2023-09-08T15:35:25;5.50;;;3.28;;
56141;SDS011;42018;48.588;10.836;2023-09-08T15:38:11;5.30;;;3.20;;
56141;SDS011;42018;48.588;10.836;2023-09-08T15:43:52;5.18;;;3.25;;
56141;SDS011;42018;48.588;10.836;2023-09-08T15:46:37;5.63;;;3.42;;
56141;SDS011;42018;48.588;10.836;2023-09-08T15:49:22;6.50;;;3.33;;
56141;SDS011;42018;48.588;10.836;2023-09-08T15:52:08;5.25;;;3.30;;
56141;SDS011;42018;48.588;10.836;2023-09-08T15:54:53;6.05;;;3.28;;
56141;SDS011;42018;48.588;10.836;2023-09-08T15:57:39;6.00;;;3.30;;
56141;SDS011;42018;48.588;10.836;2023-09-08T16:00:24;6.32;;;3.20;;
56141;SDS011;42018;48.588;10.836;2023-09-08T16:03:10;5.47;;;3.13;;
56141;SDS011;42018;48.588;10.836;2023-09-08T16:05:55;5.97;;;3.47;;
56141;SDS011;42018;48.588;10.836;2023-09-08T16:08:41;7.28;;;3.30;;
56141;SDS011;42018;48.588;10.836;2023-09-08T16:11:26;5.78;;;3.30;;
56141;SDS011;42018;48.588;10.836;2023-09-08T16:14:11;5.47;;;3.45;;
56141;SDS011;42018;48.588;10.836;2023-09-08T16:16:57;4.57;;;3.20;;
56141;SDS011;42018;48.588;10.836;2023-09-08T16:19:42;5.43;;;3.50;;
56141;SDS011;42018;48.588;10.836;2023-09-08T16:22:27;4.57;;;3.10;;
56141;SDS011;42018;48.588;10.836;2023-09-08T16:25:13;4.30;;;3.10;;
56141;SDS011;42018;48.588;10.836;2023-09-08T16:27:58;5.53;;;3.40;;
56141;SDS011;42018;48.588;10.836;2023-09-08T16:30:44;5.20;;;3.15;;
56141;SDS011;42018;48.588;10.836;2023-09-08T16:33:29;4.95;;;3.30;;
56141;SDS011;42018;48.588;10.836;2023-09-08T16:36:14;5.63;;;3.70;;
56141;SDS011;42018;48.588;10.836;2023-09-08T16:39:00;6.15;;;3.20;;
56141;SDS011;42018;48.588;10.836;2023-09-08T16:41:45;5.35;;;3.13;;
56141;SDS011;42018;48.588;10.836;2023-09-08T16:44:30;4.70;;;3.30;;
56141;SDS011;42018;48.588;10.836;2023-09-08T16:47:16;4.60;;;3.30;;
56141;SDS011;42018;48.588;10.836;2023-09-08T16:50:03;5.35;;;3.42;;
56141;SDS011;42018;48.588;10.836;2023-09-08T16:52:50;4.50;;;3.85;;
56141;SDS011;42018;48.588;10.836;2023-09-08T16:55:35;5.72;;;3.75;;
56141;SDS011;42018;48.588;10.836;2023-09-08T17:01:54;5.40;;;3.67;;
56141;SDS011;42018;48.588;10.836;2023-09-08T17:04:40;6.43;;;3.65;;
56141;SDS011;42018;48.588;10.836;2023-09-08T17:07:32;5.70;;;3.70;;
56141;SDS011;42018;48.588;10.836;2023-09-08T17:13:59;4.97;;;3.40;;
56141;SDS011;42018;48.588;10.836;2023-09-08T17:16:45;8.60;;;3.72;;
56141;SDS011;42018;48.588;10.836;2023-09-08T17:19:31;5.00;;;3.80;;
56141;SDS011;42018;48.588;10.836;2023-09-08T17:22:16;5.25;;;3.38;;
56141;SDS011;42018;48.588;10.836;2023-09-08T17:25:01;7.43;;;3.58;;
56141;SDS011;42018;48.588;10.836;2023-09-08T17:27:47;5.90;;;3.50;;
56141;SDS011;42018;48.588;10.836;2023-09-08T17:30:32;5.13;;;3.45;;
56141;SDS011;42018;48.588;10.836;2023-09-08T17:33:17;5.22;;;3.35;;
56141;SDS011;42018;48.588;10.836;2023-09-08T17:36:04;4.50;;;3.55;;
56141;SDS011;42018;48.588;10.836;2023-09-08T17:38:49;5.30;;;3.33;;
56141;SDS011;42018;48.588;10.836;2023-09-08T17:41:34;7.68;;;3.83;;
56141;SDS011;42018;48.588;10.836;2023-09-08T17:44:20;5.28;;;3.35;;
56141;SDS011;42018;48.588;10.836;2023-09-08T17:47:06;4.95;;;3.40;;
56141;SDS011;42018;48.588;10.836;2023-09-08T17:49:51;5.25;;;3.45;;
56141;SDS011;42018;48.588;10.836;2023-09-08T17:56:13;4.93;;;3.30;;
56141;SDS011;42018;48.588;10.836;2023-09-08T17:58:59;4.88;;;3.47;;
56141;SDS011;42018;48.588;10.836;2023-09-08T18:01:44;6.75;;;3.75;;
56141;SDS011;42018;48.588;10.836;2023-09-08T18:04:32;4.70;;;3.58;;
56141;SDS011;42018;48.588;10.836;2023-09-08T18:14:09;5.20;;;4.10;;
56141;SDS011;42018;48.588;10.836;2023-09-08T18:16:55;7.22;;;4.18;;
56141;SDS011;42018;48.588;10.836;2023-09-08T18:19:41;5.82;;;4.25;;
56141;SDS011;42018;48.588;10.836;2023-09-08T18:22:27;5.50;;;4.15;;
56141;SDS011;42018;48.588;10.836;2023-09-08T18:25:12;5.47;;;4.70;;
56141;SDS011;42018;48.588;10.836;2023-09-08T18:27:58;5.10;;;4.55;;
56141;SDS011;42018;48.588;10.836;2023-09-08T18:30:43;5.35;;;4.45;;
56141;SDS011;42018;48.588;10.836;2023-09-08T18:33:29;5.97;;;4.28;;
56141;SDS011;42018;48.588;10.836;2023-09-08T18:36:14;7.03;;;4.47;;
56141;SDS011;42018;48.588;10.836;2023-09-08T18:38:59;6.07;;;4.22;;
56141;SDS011;42018;48.588;10.836;2023-09-08T18:41:45;5.75;;;4.68;;
56141;SDS011;42018;48.588;10.836;2023-09-08T18:44:30;5.32;;;4.30;;
56141;SDS011;42018;48.588;10.836;2023-09-08T18:47:15;6.03;;;4.30;;
56141;SDS011;42018;48.588;10.836;2023-09-08T18:50:01;7.05;;;4.75;;
56141;SDS011;42018;48.588;10.836;2023-09-08T18:52:46;5.45;;;4.38;;
56141;SDS011;42018;48.588;10.836;2023-09-08T18:55:32;6.28;;;4.53;;
56141;SDS011;42018;48.588;10.836;2023-09-08T18:58:18;6.50;;;4.85;;
56141;SDS011;42018;48.588;10.836;2023-09-08T19:01:04;6.15;;;5.00;;
56141;SDS011;42018;48.588;10.836;2023-09-08T19:03:49;6.15;;;4.60;;
56141;SDS011;42018;48.588;10.836;2023-09-08T19:06:35;6.55;;;4.78;;
56141;SDS011;42018;48.588;10.836;2023-09-08T19:09:20;7.03;;;5.13;;
56141;SDS011;42018;48.588;10.836;2023-09-08T19:12:06;6.20;;;5.22;;
56141;SDS011;42018;48.588;10.836;2023-09-08T19:14:51;6.63;;;5.25;;
56141;SDS011;42018;48.588;10.836;2023-09-08T19:17:37;6.00;;;5.35;;
56141;SDS011;42018;48.588;10.836;2023-09-08T19:20:22;7.07;;;5.43;;
56141;SDS011;42018;48.588;10.836;2023-09-08T19:23:07;8.00;;;5.80;;
56141;SDS011;42018;48.588;10.836;2023-09-08T19:25:53;7.30;;;5.82;;